Louisville, NE (68037)

4:11 PM CDT on September 01, 2015 (GMT -0500)
Prairie View Estates | | Change Station
CLOSE
Current Station
Personal Weather Station
Location: Louisville, NE
Elevation: 1027 ft
Nearby Weather Stations

Elev 1027 ft 41.04 °N, 96.09 °W | Updated 5 minutes ago

Clear
Clear
87.7 °F
Feels Like 97 °F
N
6.0
Wind Variable Wind from SSW
Gusts 9.0 mph

Today
High -- | Low -- °F
--% Chance of Precip.
Yesterday
High -- | Low -- °F
Precip. -- in
6:51 AM 7:57 PM
Waning Gibbous, 86% visible
Pressure 29.92 in
Visibility 10.0 miles
Clouds Clear
Heat Index 97 °F
Dew Point 75 °F
Humidity 66%
Rainfall 0.00 in
Snow Depth Not available.
UV 6 out of 12
Pollen 11.30 out of 12
Air Quality Not available.
Flu Activity Not available.
METAR KPMV 012055Z AUTO 16007KT 10SM CLR 31/21 A2992 RMK AO2 T03050208
Pressure 29.92 in
Visibility 10.0 miles
Clouds Clear
Heat Index 97 °F
Dew Point 75 °F
Humidity 66%
Rainfall 0.00 in
Snow Depth Not available.
UV 6 out of 12
Pollen 11.30 out of 12
Air Quality Not available.
Flu Activity Not available.
METAR KPMV 012055Z AUTO 16007KT 10SM CLR 31/21 A2992 RMK AO2 T03050208

10-Day Weather Forecast

×

Almanac

Astronomy

Sep. 01, 2015 Rise Set
Actual Time
Civil Twilight
Nautical Twilight
Astronomical Twilight
Moon
Length of Visible Light
Length of Day
Tomorrow will be .
, % of the Moon is Illuminated

Today's Extremes

State Highs State Lows

Community

WunderPhotos

Upload Photos

1,851,617 photos uploaded!

WunderBlogs® & News

Nearby

Air Quality

  Air Quality AQ Index Pollutant
Not available.

Snow Depth

Station Depth Elevation

Earthquake Activity

City Distance Mag. Time & Date
Minimum magnitude displayed is 2.5.

Coastal Water Temperatures

Place Temperature

Stations

Nearby Weather Stations

Station Location Temp. Windchill Dew Point Humidity Wind Precip. Elev Updated Type